sensor_id;sensor_type;location;lat;lon;timestamp;P1;durP1;ratioP1;P2;durP2;ratioP2
28625;SDS011;18905;42.668;23.364;2022-11-20T00:02:24;15.90;;;7.10;;
28625;SDS011;18905;42.668;23.364;2022-11-20T00:04:49;12.85;;;7.68;;
28625;SDS011;18905;42.668;23.364;2022-11-20T00:07:14;14.15;;;7.47;;
28625;SDS011;18905;42.668;23.364;2022-11-20T00:09:40;13.93;;;7.78;;
28625;SDS011;18905;42.668;23.364;2022-11-20T00:12:05;14.40;;;7.70;;
28625;SDS011;18905;42.668;23.364;2022-11-20T00:14:31;13.27;;;8.25;;
28625;SDS011;18905;42.668;23.364;2022-11-20T00:16:56;17.60;;;9.20;;
28625;SDS011;18905;42.668;23.364;2022-11-20T00:19:21;14.00;;;8.43;;
28625;SDS011;18905;42.668;23.364;2022-11-20T00:21:47;12.93;;;7.85;;
28625;SDS011;18905;42.668;23.364;2022-11-20T00:24:12;16.65;;;8.73;;
28625;SDS011;18905;42.668;23.364;2022-11-20T00:26:38;13.13;;;7.47;;
28625;SDS011;18905;42.668;23.364;2022-11-20T00:29:03;13.73;;;8.10;;
28625;SDS011;18905;42.668;23.364;2022-11-20T00:31:29;15.57;;;8.85;;
28625;SDS011;18905;42.668;23.364;2022-11-20T00:33:55;16.08;;;8.60;;
28625;SDS011;18905;42.668;23.364;2022-11-20T00:36:21;16.55;;;8.43;;
28625;SDS011;18905;42.668;23.364;2022-11-20T00:38:52;14.65;;;7.93;;
28625;SDS011;18905;42.668;23.364;2022-11-20T00:41:19;13.70;;;7.03;;
28625;SDS011;18905;42.668;23.364;2022-11-20T00:43:45;14.75;;;7.93;;
28625;SDS011;18905;42.668;23.364;2022-11-20T00:46:14;10.05;;;6.35;;
28625;SDS011;18905;42.668;23.364;2022-11-20T00:48:41;8.68;;;5.68;;
28625;SDS011;18905;42.668;23.364;2022-11-20T00:51:07;15.48;;;6.60;;
28625;SDS011;18905;42.668;23.364;2022-11-20T00:53:37;10.75;;;6.55;;
28625;SDS011;18905;42.668;23.364;2022-11-20T00:56:07;11.63;;;5.45;;
28625;SDS011;18905;42.668;23.364;2022-11-20T00:58:39;8.30;;;3.85;;
28625;SDS011;18905;42.668;23.364;2022-11-20T01:03:40;5.80;;;2.70;;
28625;SDS011;18905;42.668;23.364;2022-11-20T01:06:09;4.70;;;3.00;;
28625;SDS011;18905;42.668;23.364;2022-11-20T01:08:36;4.72;;;2.88;;
28625;SDS011;18905;42.668;23.364;2022-11-20T01:11:02;4.78;;;1.95;;
28625;SDS011;18905;42.668;23.364;2022-11-20T01:13:32;8.57;;;2.45;;
28625;SDS011;18905;42.668;23.364;2022-11-20T01:16:11;4.85;;;2.53;;
28625;SDS011;18905;42.668;23.364;2022-11-20T01:18:40;8.45;;;2.42;;
28625;SDS011;18905;42.668;23.364;2022-11-20T01:21:08;8.63;;;2.83;;
28625;SDS011;18905;42.668;23.364;2022-11-20T01:23:37;3.78;;;2.10;;
28625;SDS011;18905;42.668;23.364;2022-11-20T01:26:05;5.95;;;2.42;;
28625;SDS011;18905;42.668;23.364;2022-11-20T01:28:32;4.13;;;2.53;;
28625;SDS011;18905;42.668;23.364;2022-11-20T01:30:59;6.05;;;2.60;;
28625;SDS011;18905;42.668;23.364;2022-11-20T01:33:24;5.60;;;2.85;;
28625;SDS011;18905;42.668;23.364;2022-11-20T01:35:51;5.03;;;2.92;;
28625;SDS011;18905;42.668;23.364;2022-11-20T01:38:17;6.45;;;3.33;;
28625;SDS011;18905;42.668;23.364;2022-11-20T01:40:42;6.88;;;3.50;;
28625;SDS011;18905;42.668;23.364;2022-11-20T01:43:16;7.15;;;3.15;;
28625;SDS011;18905;42.668;23.364;2022-11-20T01:48:42;10.23;;;3.78;;
28625;SDS011;18905;42.668;23.364;2022-11-20T01:51:15;8.68;;;3.70;;
28625;SDS011;18905;42.668;23.364;2022-11-20T01:53:46;8.75;;;3.42;;
28625;SDS011;18905;42.668;23.364;2022-11-20T01:56:12;7.55;;;3.08;;
28625;SDS011;18905;42.668;23.364;2022-11-20T01:58:41;10.75;;;3.80;;
28625;SDS011;18905;42.668;23.364;2022-11-20T02:01:11;8.13;;;3.10;;
28625;SDS011;18905;42.668;23.364;2022-11-20T02:03:38;7.93;;;3.88;;
28625;SDS011;18905;42.668;23.364;2022-11-20T02:09:00;6.13;;;3.28;;
28625;SDS011;18905;42.668;23.364;2022-11-20T02:11:25;9.73;;;3.88;;
28625;SDS011;18905;42.668;23.364;2022-11-20T02:13:50;6.05;;;3.22;;
28625;SDS011;18905;42.668;23.364;2022-11-20T02:19:02;9.32;;;3.40;;
28625;SDS011;18905;42.668;23.364;2022-11-20T02:24:34;7.40;;;2.60;;
28625;SDS011;18905;42.668;23.364;2022-11-20T02:27:09;4.53;;;2.75;;
28625;SDS011;18905;42.668;23.364;2022-11-20T02:29:38;8.82;;;3.17;;
28625;SDS011;18905;42.668;23.364;2022-11-20T02:34:47;5.28;;;2.13;;
28625;SDS011;18905;42.668;23.364;2022-11-20T02:37:13;4.72;;;2.00;;
28625;SDS011;18905;42.668;23.364;2022-11-20T02:39:39;5.43;;;2.08;;
28625;SDS011;18905;42.668;23.364;2022-11-20T02:42:05;10.57;;;2.15;;
28625;SDS011;18905;42.668;23.364;2022-11-20T02:44:30;4.03;;;1.42;;
28625;SDS011;18905;42.668;23.364;2022-11-20T02:46:59;3.58;;;1.60;;
28625;SDS011;18905;42.668;23.364;2022-11-20T02:49:24;4.68;;;1.27;;
28625;SDS011;18905;42.668;23.364;2022-11-20T02:51:50;5.93;;;1.52;;
28625;SDS011;18905;42.668;23.364;2022-11-20T02:54:16;3.55;;;1.10;;
28625;SDS011;18905;42.668;23.364;2022-11-20T02:56:42;4.13;;;1.15;;
28625;SDS011;18905;42.668;23.364;2022-11-20T02:59:08;5.57;;;1.10;;
28625;SDS011;18905;42.668;23.364;2022-11-20T03:01:35;2.58;;;0.70;;
28625;SDS011;18905;42.668;23.364;2022-11-20T03:04:00;2.97;;;1.02;;
28625;SDS011;18905;42.668;23.364;2022-11-20T03:06:26;7.55;;;0.80;;
28625;SDS011;18905;42.668;23.364;2022-11-20T03:08:51;11.30;;;1.50;;
28625;SDS011;18905;42.668;23.364;2022-11-20T03:11:17;0.80;;;0.60;;
28625;SDS011;18905;42.668;23.364;2022-11-20T03:13:42;2.40;;;0.85;;
28625;SDS011;18905;42.668;23.364;2022-11-20T03:16:08;3.28;;;1.20;;
28625;SDS011;18905;42.668;23.364;2022-11-20T03:18:37;3.22;;;0.98;;
28625;SDS011;18905;42.668;23.364;2022-11-20T03:21:03;3.33;;;1.17;;
28625;SDS011;18905;42.668;23.364;2022-11-20T03:23:29;3.80;;;1.00;;
28625;SDS011;18905;42.668;23.364;2022-11-20T03:26:06;5.55;;;1.08;;
28625;SDS011;18905;42.668;23.364;2022-11-20T03:28:50;3.33;;;1.10;;
28625;SDS011;18905;42.668;23.364;2022-11-20T03:31:18;7.65;;;1.20;;
28625;SDS011;18905;42.668;23.364;2022-11-20T03:33:45;2.55;;;1.05;;
28625;SDS011;18905;42.668;23.364;2022-11-20T03:36:12;7.82;;;1.20;;
28625;SDS011;18905;42.668;23.364;2022-11-20T03:38:39;3.50;;;0.90;;
28625;SDS011;18905;42.668;23.364;2022-11-20T03:41:07;3.45;;;1.08;;
28625;SDS011;18905;42.668;23.364;2022-11-20T03:43:34;3.42;;;1.00;;
28625;SDS011;18905;42.668;23.364;2022-11-20T03:46:00;3.08;;;1.20;;
28625;SDS011;18905;42.668;23.364;2022-11-20T03:48:25;7.57;;;1.42;;
28625;SDS011;18905;42.668;23.364;2022-11-20T03:50:51;2.92;;;1.02;;
28625;SDS011;18905;42.668;23.364;2022-11-20T03:53:17;1.77;;;1.00;;
28625;SDS011;18905;42.668;23.364;2022-11-20T03:55:43;1.98;;;0.95;;
28625;SDS011;18905;42.668;23.364;2022-11-20T03:58:09;2.95;;;0.80;;
28625;SDS011;18905;42.668;23.364;2022-11-20T04:00:35;8.20;;;1.15;;
28625;SDS011;18905;42.668;23.364;2022-11-20T04:03:01;4.05;;;0.98;;
28625;SDS011;18905;42.668;23.364;2022-11-20T04:05:26;3.60;;;1.20;;
28625;SDS011;18905;42.668;23.364;2022-11-20T04:07:52;5.15;;;1.10;;
28625;SDS011;18905;42.668;23.364;2022-11-20T04:10:17;3.85;;;0.93;;
28625;SDS011;18905;42.668;23.364;2022-11-20T04:12:43;2.80;;;0.80;;
28625;SDS011;18905;42.668;23.364;2022-11-20T04:15:08;5.03;;;1.00;;
28625;SDS011;18905;42.668;23.364;2022-11-20T04:17:34;4.00;;;0.90;;
28625;SDS011;18905;42.668;23.364;2022-11-20T04:20:00;3.92;;;1.00;;
28625;SDS011;18905;42.668;23.364;2022-11-20T04:22:25;3.75;;;0.90;;
28625;SDS011;18905;42.668;23.364;2022-11-20T04:24:51;3.97;;;0.80;;
28625;SDS011;18905;42.668;23.364;2022-11-20T04:27:16;1.92;;;0.80;;
28625;SDS011;18905;42.668;23.364;2022-11-20T04:29:42;5.10;;;0.93;;
28625;SDS011;18905;42.668;23.364;2022-11-20T04:32:07;4.55;;;1.00;;
28625;SDS011;18905;42.668;23.364;2022-11-20T04:34:32;3.30;;;0.80;;
28625;SDS011;18905;42.668;23.364;2022-11-20T04:36:58;5.35;;;1.25;;
28625;SDS011;18905;42.668;23.364;2022-11-20T04:39:24;2.40;;;0.95;;
28625;SDS011;18905;42.668;23.364;2022-11-20T04:41:49;3.75;;;1.10;;
28625;SDS011;18905;42.668;23.364;2022-11-20T04:44:34;5.00;;;1.10;;
28625;SDS011;18905;42.668;23.364;2022-11-20T04:47:00;3.10;;;1.10;;
28625;SDS011;18905;42.668;23.364;2022-11-20T04:49:25;2.15;;;1.00;;
28625;SDS011;18905;42.668;23.364;2022-11-20T04:51:52;3.92;;;1.02;;
28625;SDS011;18905;42.668;23.364;2022-11-20T04:54:18;2.70;;;1.35;;
28625;SDS011;18905;42.668;23.364;2022-11-20T04:56:46;4.65;;;1.10;;
28625;SDS011;18905;42.668;23.364;2022-11-20T04:59:12;4.75;;;1.20;;
28625;SDS011;18905;42.668;23.364;2022-11-20T05:01:38;5.13;;;1.10;;
28625;SDS011;18905;42.668;23.364;2022-11-20T05:04:03;2.35;;;0.90;;
28625;SDS011;18905;42.668;23.364;2022-11-20T05:06:29;5.25;;;1.20;;
28625;SDS011;18905;42.668;23.364;2022-11-20T05:08:54;3.33;;;1.00;;
28625;SDS011;18905;42.668;23.364;2022-11-20T05:11:20;5.30;;;0.98;;
28625;SDS011;18905;42.668;23.364;2022-11-20T05:13:46;4.55;;;1.42;;
28625;SDS011;18905;42.668;23.364;2022-11-20T05:16:14;1.98;;;0.82;;
28625;SDS011;18905;42.668;23.364;2022-11-20T05:18:41;4.75;;;1.20;;
28625;SDS011;18905;42.668;23.364;2022-11-20T05:21:07;2.45;;;1.10;;
28625;SDS011;18905;42.668;23.364;2022-11-20T05:23:34;4.13;;;0.90;;
28625;SDS011;18905;42.668;23.364;2022-11-20T05:26:00;2.65;;;0.82;;
28625;SDS011;18905;42.668;23.364;2022-11-20T05:28:26;4.40;;;1.20;;
28625;SDS011;18905;42.668;23.364;2022-11-20T05:30:53;4.15;;;1.20;;
28625;SDS011;18905;42.668;23.364;2022-11-20T05:33:19;2.45;;;1.10;;
28625;SDS011;18905;42.668;23.364;2022-11-20T05:35:45;2.75;;;1.02;;
28625;SDS011;18905;42.668;23.364;2022-11-20T05:38:10;5.47;;;1.40;;
28625;SDS011;18905;42.668;23.364;2022-11-20T05:40:36;4.65;;;1.05;;
28625;SDS011;18905;42.668;23.364;2022-11-20T05:43:01;3.95;;;1.30;;
28625;SDS011;18905;42.668;23.364;2022-11-20T05:45:27;3.97;;;1.27;;
28625;SDS011;18905;42.668;23.364;2022-11-20T05:47:52;6.90;;;1.35;;
28625;SDS011;18905;42.668;23.364;2022-11-20T05:50:18;3.25;;;1.35;;
28625;SDS011;18905;42.668;23.364;2022-11-20T05:52:43;4.93;;;1.40;;
28625;SDS011;18905;42.668;23.364;2022-11-20T05:55:09;5.47;;;1.58;;
28625;SDS011;18905;42.668;23.364;2022-11-20T05:57:34;3.95;;;1.75;;
28625;SDS011;18905;42.668;23.364;2022-11-20T06:00:00;4.85;;;1.20;;
28625;SDS011;18905;42.668;23.364;2022-11-20T06:02:26;3.53;;;1.73;;
28625;SDS011;18905;42.668;23.364;2022-11-20T06:04:51;5.65;;;1.45;;
28625;SDS011;18905;42.668;23.364;2022-11-20T06:07:17;9.30;;;1.50;;
28625;SDS011;18905;42.668;23.364;2022-11-20T06:09:42;5.95;;;1.50;;
28625;SDS011;18905;42.668;23.364;2022-11-20T06:12:08;5.75;;;1.50;;
28625;SDS011;18905;42.668;23.364;2022-11-20T06:14:33;5.85;;;1.40;;
28625;SDS011;18905;42.668;23.364;2022-11-20T06:16:58;7.60;;;1.55;;
28625;SDS011;18905;42.668;23.364;2022-11-20T06:19:24;6.10;;;1.40;;
28625;SDS011;18905;42.668;23.364;2022-11-20T06:21:49;6.38;;;1.58;;
28625;SDS011;18905;42.668;23.364;2022-11-20T06:24:15;6.18;;;1.48;;
28625;SDS011;18905;42.668;23.364;2022-11-20T06:26:41;3.47;;;1.30;;
28625;SDS011;18905;42.668;23.364;2022-11-20T06:29:06;8.45;;;1.42;;
28625;SDS011;18905;42.668;23.364;2022-11-20T06:31:32;6.95;;;1.70;;
28625;SDS011;18905;42.668;23.364;2022-11-20T06:34:02;7.18;;;1.65;;
28625;SDS011;18905;42.668;23.364;2022-11-20T06:36:31;7.68;;;1.55;;
28625;SDS011;18905;42.668;23.364;2022-11-20T06:38:57;7.00;;;1.63;;
28625;SDS011;18905;42.668;23.364;2022-11-20T06:41:23;5.68;;;1.50;;
28625;SDS011;18905;42.668;23.364;2022-11-20T06:43:50;7.65;;;1.40;;
28625;SDS011;18905;42.668;23.364;2022-11-20T06:46:15;8.07;;;1.50;;
28625;SDS011;18905;42.668;23.364;2022-11-20T06:48:42;4.15;;;1.70;;
28625;SDS011;18905;42.668;23.364;2022-11-20T06:51:08;9.95;;;1.65;;
28625;SDS011;18905;42.668;23.364;2022-11-20T06:53:33;6.75;;;2.00;;
28625;SDS011;18905;42.668;23.364;2022-11-20T06:55:59;5.18;;;1.45;;
28625;SDS011;18905;42.668;23.364;2022-11-20T06:58:28;6.72;;;1.52;;
28625;SDS011;18905;42.668;23.364;2022-11-20T07:01:05;3.35;;;1.13;;
28625;SDS011;18905;42.668;23.364;2022-11-20T07:03:33;6.95;;;1.35;;
28625;SDS011;18905;42.668;23.364;2022-11-20T07:05:59;10.68;;;1.42;;
28625;SDS011;18905;42.668;23.364;2022-11-20T07:08:26;5.40;;;1.40;;
28625;SDS011;18905;42.668;23.364;2022-11-20T07:10:52;2.63;;;1.10;;
28625;SDS011;18905;42.668;23.364;2022-11-20T07:13:17;12.07;;;1.60;;
28625;SDS011;18905;42.668;23.364;2022-11-20T07:15:43;4.47;;;1.08;;
28625;SDS011;18905;42.668;23.364;2022-11-20T07:18:08;4.40;;;1.25;;
28625;SDS011;18905;42.668;23.364;2022-11-20T07:20:33;7.95;;;1.42;;
28625;SDS011;18905;42.668;23.364;2022-11-20T07:22:59;3.97;;;1.45;;
28625;SDS011;18905;42.668;23.364;2022-11-20T07:25:25;5.15;;;1.50;;
28625;SDS011;18905;42.668;23.364;2022-11-20T07:27:52;4.30;;;1.23;;
28625;SDS011;18905;42.668;23.364;2022-11-20T07:30:18;4.90;;;1.75;;
28625;SDS011;18905;42.668;23.364;2022-11-20T07:32:47;4.60;;;1.20;;
28625;SDS011;18905;42.668;23.364;2022-11-20T07:35:15;5.03;;;1.42;;
28625;SDS011;18905;42.668;23.364;2022-11-20T07:37:41;3.85;;;1.55;;
28625;SDS011;18905;42.668;23.364;2022-11-20T07:40:06;9.70;;;1.15;;
28625;SDS011;18905;42.668;23.364;2022-11-20T07:42:32;4.43;;;1.20;;
28625;SDS011;18905;42.668;23.364;2022-11-20T07:44:57;3.70;;;1.17;;
28625;SDS011;18905;42.668;23.364;2022-11-20T07:47:23;4.00;;;1.30;;
28625;SDS011;18905;42.668;23.364;2022-11-20T07:49:48;9.13;;;1.58;;
28625;SDS011;18905;42.668;23.364;2022-11-20T07:52:14;9.07;;;1.70;;
28625;SDS011;18905;42.668;23.364;2022-11-20T07:54:39;14.43;;;2.20;;
28625;SDS011;18905;42.668;23.364;2022-11-20T07:57:04;2.95;;;1.55;;
28625;SDS011;18905;42.668;23.364;2022-11-20T07:59:30;4.80;;;1.45;;
28625;SDS011;18905;42.668;23.364;2022-11-20T08:01:55;3.58;;;1.30;;
28625;SDS011;18905;42.668;23.364;2022-11-20T08:04:20;4.82;;;1.63;;
28625;SDS011;18905;42.668;23.364;2022-11-20T08:06:46;6.72;;;1.58;;
28625;SDS011;18905;42.668;23.364;2022-11-20T08:09:12;3.25;;;1.38;;
28625;SDS011;18905;42.668;23.364;2022-11-20T08:11:37;6.22;;;1.98;;
28625;SDS011;18905;42.668;23.364;2022-11-20T08:14:28;5.70;;;1.30;;
28625;SDS011;18905;42.668;23.364;2022-11-20T08:16:54;6.47;;;1.35;;
28625;SDS011;18905;42.668;23.364;2022-11-20T08:19:19;9.75;;;1.85;;
28625;SDS011;18905;42.668;23.364;2022-11-20T08:21:45;6.97;;;1.92;;
28625;SDS011;18905;42.668;23.364;2022-11-20T08:24:11;7.13;;;1.60;;
28625;SDS011;18905;42.668;23.364;2022-11-20T08:26:37;8.52;;;1.65;;
28625;SDS011;18905;42.668;23.364;2022-11-20T08:29:03;9.02;;;1.52;;
28625;SDS011;18905;42.668;23.364;2022-11-20T08:31:29;6.63;;;1.80;;
28625;SDS011;18905;42.668;23.364;2022-11-20T08:33:55;9.05;;;1.70;;
28625;SDS011;18905;42.668;23.364;2022-11-20T08:36:21;10.93;;;2.13;;
28625;SDS011;18905;42.668;23.364;2022-11-20T08:38:51;9.18;;;1.42;;
28625;SDS011;18905;42.668;23.364;2022-11-20T08:41:18;8.35;;;1.60;;
28625;SDS011;18905;42.668;23.364;2022-11-20T08:44:01;9.23;;;2.13;;
28625;SDS011;18905;42.668;23.364;2022-11-20T08:46:35;19.80;;;2.05;;
28625;SDS011;18905;42.668;23.364;2022-11-20T08:49:03;10.10;;;1.83;;
28625;SDS011;18905;42.668;23.364;2022-11-20T08:51:29;7.75;;;2.60;;
28625;SDS011;18905;42.668;23.364;2022-11-20T08:53:55;11.73;;;2.17;;
28625;SDS011;18905;42.668;23.364;2022-11-20T08:56:20;6.45;;;2.15;;
28625;SDS011;18905;42.668;23.364;2022-11-20T08:58:46;5.03;;;1.95;;
28625;SDS011;18905;42.668;23.364;2022-11-20T09:01:11;12.00;;;2.45;;
28625;SDS011;18905;42.668;23.364;2022-11-20T09:03:36;7.85;;;1.85;;
28625;SDS011;18905;42.668;23.364;2022-11-20T09:06:03;5.53;;;2.40;;
28625;SDS011;18905;42.668;23.364;2022-11-20T09:08:31;8.25;;;1.92;;
28625;SDS011;18905;42.668;23.364;2022-11-20T09:10:57;8.43;;;1.90;;
28625;SDS011;18905;42.668;23.364;2022-11-20T09:13:23;9.95;;;2.65;;
28625;SDS011;18905;42.668;23.364;2022-11-20T09:15:53;8.75;;;2.22;;
28625;SDS011;18905;42.668;23.364;2022-11-20T09:18:24;6.20;;;2.40;;
28625;SDS011;18905;42.668;23.364;2022-11-20T09:20:51;7.68;;;2.35;;
28625;SDS011;18905;42.668;23.364;2022-11-20T09:23:16;7.68;;;2.35;;
28625;SDS011;18905;42.668;23.364;2022-11-20T09:25:42;6.07;;;2.53;;
28625;SDS011;18905;42.668;23.364;2022-11-20T09:28:08;5.90;;;2.35;;
28625;SDS011;18905;42.668;23.364;2022-11-20T09:30:33;5.20;;;2.55;;
28625;SDS011;18905;42.668;23.364;2022-11-20T09:32:58;6.40;;;2.25;;
28625;SDS011;18905;42.668;23.364;2022-11-20T09:35:24;3.42;;;1.50;;
28625;SDS011;18905;42.668;23.364;2022-11-20T09:37:49;7.05;;;1.50;;
28625;SDS011;18905;42.668;23.364;2022-11-20T09:40:25;4.60;;;1.30;;
28625;SDS011;18905;42.668;23.364;2022-11-20T09:42:57;2.83;;;1.00;;
28625;SDS011;18905;42.668;23.364;2022-11-20T09:51:16;14.90;;;2.95;;
28625;SDS011;18905;42.668;23.364;2022-11-20T09:56:41;9.20;;;1.95;;
28625;SDS011;18905;42.668;23.364;2022-11-20T09:59:14;14.60;;;2.05;;
28625;SDS011;18905;42.668;23.364;2022-11-20T10:01:53;13.43;;;1.80;;
28625;SDS011;18905;42.668;23.364;2022-11-20T10:04:20;9.98;;;1.75;;
28625;SDS011;18905;42.668;23.364;2022-11-20T10:06:50;5.90;;;1.40;;
28625;SDS011;18905;42.668;23.364;2022-11-20T10:09:29;2.65;;;1.38;;
28625;SDS011;18905;42.668;23.364;2022-11-20T10:12:14;7.22;;;2.10;;
28625;SDS011;18905;42.668;23.364;2022-11-20T10:15:01;7.68;;;2.30;;
28625;SDS011;18905;42.668;23.364;2022-11-20T10:18:02;8.38;;;2.85;;
28625;SDS011;18905;42.668;23.364;2022-11-20T10:20:48;5.45;;;2.95;;
28625;SDS011;18905;42.668;23.364;2022-11-20T10:26:03;16.67;;;4.28;;
28625;SDS011;18905;42.668;23.364;2022-11-20T10:31:39;10.82;;;4.30;;
28625;SDS011;18905;42.668;23.364;2022-11-20T10:34:23;12.40;;;3.78;;
28625;SDS011;18905;42.668;23.364;2022-11-20T10:36:56;9.18;;;3.88;;
28625;SDS011;18905;42.668;23.364;2022-11-20T10:39:31;14.98;;;4.03;;
28625;SDS011;18905;42.668;23.364;2022-11-20T10:42:02;13.10;;;4.18;;
28625;SDS011;18905;42.668;23.364;2022-11-20T10:44:28;10.35;;;4.43;;
28625;SDS011;18905;42.668;23.364;2022-11-20T10:47:16;11.07;;;4.40;;
28625;SDS011;18905;42.668;23.364;2022-11-20T10:49:44;33.00;;;7.05;;
28625;SDS011;18905;42.668;23.364;2022-11-20T10:58:10;50.90;;;7.38;;
28625;SDS011;18905;42.668;23.364;2022-11-20T11:00:39;23.65;;;4.82;;
28625;SDS011;18905;42.668;23.364;2022-11-20T11:03:20;42.33;;;6.15;;
28625;SDS011;18905;42.668;23.364;2022-11-20T11:05:58;32.78;;;8.48;;
28625;SDS011;18905;42.668;23.364;2022-11-20T11:08:24;70.15;;;8.98;;
28625;SDS011;18905;42.668;23.364;2022-11-20T11:10:59;88.82;;;10.75;;
28625;SDS011;18905;42.668;23.364;2022-11-20T11:13:29;12.80;;;4.25;;
28625;SDS011;18905;42.668;23.364;2022-11-20T11:15:57;75.47;;;10.00;;
28625;SDS011;18905;42.668;23.364;2022-11-20T11:18:33;58.70;;;6.95;;
28625;SDS011;18905;42.668;23.364;2022-11-20T11:21:01;43.10;;;6.28;;
28625;SDS011;18905;42.668;23.364;2022-11-20T11:23:38;7.82;;;2.03;;
28625;SDS011;18905;42.668;23.364;2022-11-20T11:26:06;56.00;;;7.28;;
28625;SDS011;18905;42.668;23.364;2022-11-20T11:28:42;53.20;;;5.63;;
28625;SDS011;18905;42.668;23.364;2022-11-20T11:31:25;83.90;;;7.60;;
28625;SDS011;18905;42.668;23.364;2022-11-20T11:33:52;22.65;;;3.28;;
28625;SDS011;18905;42.668;23.364;2022-11-20T11:36:29;23.70;;;4.00;;
28625;SDS011;18905;42.668;23.364;2022-11-20T11:38:55;39.95;;;4.70;;
28625;SDS011;18905;42.668;23.364;2022-11-20T11:49:27;1.95;;;1.15;;
28625;SDS011;18905;42.668;23.364;2022-11-20T11:52:00;1.65;;;1.02;;
28625;SDS011;18905;42.668;23.364;2022-11-20T12:02:38;9.95;;;1.10;;
28625;SDS011;18905;42.668;23.364;2022-11-20T12:05:21;3.80;;;1.20;;
28625;SDS011;18905;42.668;23.364;2022-11-20T12:07:52;7.68;;;1.45;;
28625;SDS011;18905;42.668;23.364;2022-11-20T12:15:53;4.95;;;1.20;;
28625;SDS011;18905;42.668;23.364;2022-11-20T12:18:19;8.60;;;1.48;;
28625;SDS011;18905;42.668;23.364;2022-11-20T12:21:11;2.40;;;0.85;;
28625;SDS011;18905;42.668;23.364;2022-11-20T12:24:06;4.38;;;1.00;;
28625;SDS011;18905;42.668;23.364;2022-11-20T12:29:03;5.00;;;1.40;;
28625;SDS011;18905;42.668;23.364;2022-11-20T12:37:33;2.72;;;1.00;;
28625;SDS011;18905;42.668;23.364;2022-11-20T12:40:11;2.70;;;0.93;;
28625;SDS011;18905;42.668;23.364;2022-11-20T12:51:32;4.63;;;1.58;;
28625;SDS011;18905;42.668;23.364;2022-11-20T13:07:38;14.65;;;2.50;;
28625;SDS011;18905;42.668;23.364;2022-11-20T13:10:05;7.78;;;3.45;;
28625;SDS011;18905;42.668;23.364;2022-11-20T13:12:47;8.40;;;4.25;;
28625;SDS011;18905;42.668;23.364;2022-11-20T13:15:37;10.35;;;4.78;;
28625;SDS011;18905;42.668;23.364;2022-11-20T13:18:13;9.10;;;4.50;;
28625;SDS011;18905;42.668;23.364;2022-11-20T13:20:43;6.65;;;4.20;;
28625;SDS011;18905;42.668;23.364;2022-11-20T13:23:10;13.90;;;3.45;;
28625;SDS011;18905;42.668;23.364;2022-11-20T13:25:39;9.32;;;3.15;;
28625;SDS011;18905;42.668;23.364;2022-11-20T13:28:25;5.88;;;2.78;;
28625;SDS011;18905;42.668;23.364;2022-11-20T13:30:55;7.50;;;3.20;;
28625;SDS011;18905;42.668;23.364;2022-11-20T13:38:46;8.18;;;2.40;;
28625;SDS011;18905;42.668;23.364;2022-11-20T13:41:23;9.65;;;3.20;;
28625;SDS011;18905;42.668;23.364;2022-11-20T13:44:42;13.27;;;2.85;;
28625;SDS011;18905;42.668;23.364;2022-11-20T13:46:50;7.43;;;2.78;;
28625;SDS011;18905;42.668;23.364;2022-11-20T13:57:46;6.53;;;2.90;;
28625;SDS011;18905;42.668;23.364;2022-11-20T14:00:20;15.02;;;3.22;;
28625;SDS011;18905;42.668;23.364;2022-11-20T14:03:09;11.75;;;3.72;;
28625;SDS011;18905;42.668;23.364;2022-11-20T14:05:51;6.60;;;3.45;;
28625;SDS011;18905;42.668;23.364;2022-11-20T14:08:39;10.30;;;3.08;;
28625;SDS011;18905;42.668;23.364;2022-11-20T14:11:27;8.15;;;3.60;;
28625;SDS011;18905;42.668;23.364;2022-11-20T14:16:21;12.68;;;3.45;;
28625;SDS011;18905;42.668;23.364;2022-11-20T14:18:47;15.48;;;3.75;;
28625;SDS011;18905;42.668;23.364;2022-11-20T14:21:23;10.70;;;3.35;;
28625;SDS011;18905;42.668;23.364;2022-11-20T14:24:02;9.88;;;4.38;;
28625;SDS011;18905;42.668;23.364;2022-11-20T14:26:31;14.13;;;5.20;;
28625;SDS011;18905;42.668;23.364;2022-11-20T14:28:57;13.35;;;6.07;;
28625;SDS011;18905;42.668;23.364;2022-11-20T14:31:24;14.32;;;6.13;;
28625;SDS011;18905;42.668;23.364;2022-11-20T14:33:52;11.35;;;5.65;;
28625;SDS011;18905;42.668;23.364;2022-11-20T14:36:23;16.83;;;7.55;;
28625;SDS011;18905;42.668;23.364;2022-11-20T14:38:50;9.00;;;5.30;;
28625;SDS011;18905;42.668;23.364;2022-11-20T14:41:18;14.05;;;5.03;;
28625;SDS011;18905;42.668;23.364;2022-11-20T14:43:46;48.05;;;10.40;;
28625;SDS011;18905;42.668;23.364;2022-11-20T14:46:16;30.75;;;7.47;;
28625;SDS011;18905;42.668;23.364;2022-11-20T14:48:49;22.60;;;7.10;;
28625;SDS011;18905;42.668;23.364;2022-11-20T14:59:27;13.82;;;4.72;;
28625;SDS011;18905;42.668;23.364;2022-11-20T15:02:10;12.02;;;5.22;;
28625;SDS011;18905;42.668;23.364;2022-11-20T15:04:46;8.07;;;4.78;;
28625;SDS011;18905;42.668;23.364;2022-11-20T15:07:36;13.35;;;5.40;;
28625;SDS011;18905;42.668;23.364;2022-11-20T15:10:11;9.13;;;5.07;;
28625;SDS011;18905;42.668;23.364;2022-11-20T15:12:51;9.85;;;4.85;;
28625;SDS011;18905;42.668;23.364;2022-11-20T15:15:26;13.82;;;5.78;;
28625;SDS011;18905;42.668;23.364;2022-11-20T15:17:56;11.45;;;5.13;;
28625;SDS011;18905;42.668;23.364;2022-11-20T15:20:24;7.93;;;4.25;;
28625;SDS011;18905;42.668;23.364;2022-11-20T15:22:52;7.18;;;3.47;;
28625;SDS011;18905;42.668;23.364;2022-11-20T15:25:18;6.50;;;3.05;;
28625;SDS011;18905;42.668;23.364;2022-11-20T15:27:44;6.28;;;3.33;;
28625;SDS011;18905;42.668;23.364;2022-11-20T15:30:14;7.72;;;3.67;;
28625;SDS011;18905;42.668;23.364;2022-11-20T15:32:42;9.90;;;3.97;;
28625;SDS011;18905;42.668;23.364;2022-11-20T15:35:08;8.75;;;3.40;;
28625;SDS011;18905;42.668;23.364;2022-11-20T15:37:35;8.07;;;3.30;;
28625;SDS011;18905;42.668;23.364;2022-11-20T15:40:00;5.75;;;3.47;;
28625;SDS011;18905;42.668;23.364;2022-11-20T15:42:26;5.85;;;3.30;;
28625;SDS011;18905;42.668;23.364;2022-11-20T15:44:51;10.15;;;3.40;;
28625;SDS011;18905;42.668;23.364;2022-11-20T15:47:24;6.65;;;3.38;;
28625;SDS011;18905;42.668;23.364;2022-11-20T15:49:53;10.95;;;4.43;;
28625;SDS011;18905;42.668;23.364;2022-11-20T15:52:18;8.23;;;3.10;;
28625;SDS011;18905;42.668;23.364;2022-11-20T15:54:43;7.38;;;3.35;;
28625;SDS011;18905;42.668;23.364;2022-11-20T15:57:09;8.35;;;4.13;;
28625;SDS011;18905;42.668;23.364;2022-11-20T15:59:34;9.50;;;4.20;;
28625;SDS011;18905;42.668;23.364;2022-11-20T16:02:08;8.48;;;4.25;;
28625;SDS011;18905;42.668;23.364;2022-11-20T16:04:35;9.40;;;3.80;;
28625;SDS011;18905;42.668;23.364;2022-11-20T16:07:00;9.55;;;3.42;;
28625;SDS011;18905;42.668;23.364;2022-11-20T16:09:26;3.80;;;2.47;;
28625;SDS011;18905;42.668;23.364;2022-11-20T16:11:51;10.75;;;3.03;;
28625;SDS011;18905;42.668;23.364;2022-11-20T16:14:16;6.40;;;2.58;;
28625;SDS011;18905;42.668;23.364;2022-11-20T16:17:00;6.13;;;2.70;;
28625;SDS011;18905;42.668;23.364;2022-11-20T16:19:26;6.30;;;2.13;;
28625;SDS011;18905;42.668;23.364;2022-11-20T16:21:52;5.57;;;2.17;;
28625;SDS011;18905;42.668;23.364;2022-11-20T16:24:17;8.80;;;2.47;;
28625;SDS011;18905;42.668;23.364;2022-11-20T16:26:42;7.88;;;2.85;;
28625;SDS011;18905;42.668;23.364;2022-11-20T16:29:08;6.30;;;2.30;;
28625;SDS011;18905;42.668;23.364;2022-11-20T16:31:35;5.50;;;2.40;;
28625;SDS011;18905;42.668;23.364;2022-11-20T16:34:02;6.43;;;2.20;;
28625;SDS011;18905;42.668;23.364;2022-11-20T16:36:30;6.53;;;2.45;;